createdAt,value
2023-01-20T00:01:49.295Z,60.60
2023-01-20T00:04:21.649Z,58.17
2023-01-20T00:06:51.374Z,60.88
2023-01-20T00:09:20.707Z,56.90
2023-01-20T00:11:50.045Z,61.58
2023-01-20T00:14:19.400Z,50.83
2023-01-20T00:16:48.505Z,56.58
2023-01-20T00:19:20.507Z,52.63
2023-01-20T00:21:50.136Z,72.60
2023-01-20T00:24:19.469Z,57.65
2023-01-20T00:26:48.592Z,65.25
2023-01-20T00:29:17.900Z,79.35
2023-01-20T00:31:47.290Z,88.63
2023-01-20T00:34:16.528Z,77.72
2023-01-20T00:36:45.616Z,66.75
2023-01-20T00:39:14.818Z,86.82
2023-01-20T00:41:43.985Z,73.47
2023-01-20T00:44:12.836Z,88.72
2023-01-20T00:46:42.122Z,95.50
2023-01-20T00:49:12.232Z,94.22
2023-01-20T00:51:41.244Z,98.38
2023-01-20T00:54:10.746Z,94.65
2023-01-20T00:56:40.186Z,107.70
2023-01-20T00:59:11.753Z,91.78
2023-01-20T01:01:42.230Z,113.00
2023-01-20T01:04:12.625Z,96.07
2023-01-20T01:06:44.956Z,112.22
2023-01-20T01:11:48.891Z,129.02
2023-01-20T01:14:20.136Z,126.45
2023-01-20T01:16:50.611Z,135.05
2023-01-20T01:19:21.050Z,131.43
2023-01-20T01:21:51.110Z,152.20
2023-01-20T01:24:20.597Z,181.18
2023-01-20T01:26:51.017Z,187.13
2023-01-20T01:29:20.396Z,191.35
2023-01-20T01:31:49.913Z,175.45
2023-01-20T01:34:19.242Z,199.40
2023-01-20T01:36:48.837Z,200.63
2023-01-20T01:39:18.049Z,189.55
2023-01-20T01:41:47.276Z,201.65
2023-01-20T01:44:16.868Z,187.15
2023-01-20T01:46:46.019Z,208.38
2023-01-20T01:49:24.213Z,205.82
2023-01-20T01:52:05.476Z,198.43
2023-01-20T01:54:41.506Z,218.35
2023-01-20T01:57:11.416Z,224.98
2023-01-20T01:59:41.119Z,208.38
2023-01-20T02:02:10.604Z,209.57
2023-01-20T02:04:39.922Z,202.52
2023-01-20T02:07:19.344Z,208.18
2023-01-20T02:09:49.454Z,186.88
2023-01-20T02:12:22.167Z,182.20
2023-01-20T02:14:56.126Z,165.85
2023-01-20T02:17:31.687Z,184.23
2023-01-20T02:20:38.574Z,176.18
2023-01-20T02:23:15.975Z,156.38
2023-01-20T02:26:06.561Z,165.93
2023-01-20T02:28:52.829Z,159.57
2023-01-20T02:31:34.843Z,143.98
2023-01-20T02:34:13.071Z,141.75
2023-01-20T02:37:20.231Z,139.90
2023-01-20T02:39:55.358Z,141.18
2023-01-20T02:42:45.007Z,138.25
2023-01-20T02:45:37.937Z,141.82
2023-01-20T02:51:05.309Z,142.05
2023-01-20T02:53:42.032Z,147.45
2023-01-20T02:56:14.303Z,170.85
2023-01-20T02:59:14.587Z,184.30
2023-01-20T03:02:17.990Z,171.52
2023-01-20T03:04:54.160Z,152.85
2023-01-20T03:07:28.300Z,182.32
2023-01-20T03:10:02.811Z,190.85
2023-01-20T03:12:42.328Z,189.32
2023-01-20T03:15:13.137Z,170.95
2023-01-20T03:17:43.053Z,176.43
2023-01-20T03:20:12.734Z,184.35
2023-01-20T03:22:42.605Z,166.88
2023-01-20T03:25:16.070Z,187.05
2023-01-20T03:27:45.651Z,195.20
2023-01-20T03:30:16.830Z,185.00
2023-01-20T03:32:50.053Z,165.75
2023-01-20T03:35:20.133Z,156.15
2023-01-20T03:37:49.571Z,154.82
2023-01-20T03:40:19.292Z,155.13
2023-01-20T03:42:58.602Z,166.68
2023-01-20T03:45:54.393Z,153.35
2023-01-20T03:48:45.358Z,158.18
2023-01-20T03:51:27.401Z,147.70
2023-01-20T03:54:14.462Z,170.65
2023-01-20T03:57:13.669Z,154.82
2023-01-20T03:59:46.027Z,155.85
2023-01-20T04:02:15.989Z,145.18
2023-01-20T04:04:48.645Z,170.82
2023-01-20T04:09:55.839Z,164.38
2023-01-20T04:12:25.346Z,156.18
2023-01-20T04:14:54.602Z,149.75
2023-01-20T04:17:31.165Z,153.73
2023-01-20T04:20:11.549Z,139.45
2023-01-20T04:22:42.822Z,135.05
2023-01-20T04:25:32.288Z,146.45
2023-01-20T04:28:02.209Z,127.38
2023-01-20T04:30:31.536Z,164.98
2023-01-20T04:33:01.163Z,141.20
2023-01-20T04:35:30.453Z,142.80
2023-01-20T04:38:00.098Z,120.60
2023-01-20T04:40:29.631Z,135.15
2023-01-20T04:42:59.002Z,127.68
2023-01-20T04:45:28.763Z,129.50
2023-01-20T04:47:58.603Z,120.40
2023-01-20T04:50:28.020Z,125.22
2023-01-20T04:53:00.623Z,120.78
2023-01-20T04:55:30.688Z,117.63
2023-01-20T04:58:00.462Z,134.93
2023-01-20T05:00:30.221Z,117.68
2023-01-20T05:03:00.214Z,119.22
2023-01-20T05:05:30.248Z,124.95
2023-01-20T05:08:00.731Z,124.72
2023-01-20T05:10:30.807Z,130.50
2023-01-20T05:13:00.514Z,135.90
2023-01-20T05:15:30.057Z,137.52
2023-01-20T05:17:59.592Z,137.02
2023-01-20T05:20:30.394Z,127.70
2023-01-20T05:23:01.358Z,130.52
2023-01-20T05:25:31.140Z,197.43
2023-01-20T05:28:02.978Z,134.23
2023-01-20T05:30:32.411Z,153.30
2023-01-20T05:33:02.204Z,177.88
2023-01-20T05:35:32.101Z,197.95
2023-01-20T05:38:01.385Z,175.50
2023-01-20T05:40:31.055Z,162.50
2023-01-20T05:43:04.322Z,200.98
2023-01-20T05:45:34.474Z,158.50
2023-01-20T05:48:04.347Z,186.88
2023-01-20T05:50:33.725Z,178.13
2023-01-20T05:53:03.287Z,173.93
2023-01-20T05:55:33.396Z,168.43
2023-01-20T05:58:06.274Z,193.00
2023-01-20T06:00:36.421Z,173.88
2023-01-20T06:03:06.861Z,151.20
2023-01-20T06:05:37.204Z,132.43
2023-01-20T06:08:06.972Z,130.45
2023-01-20T06:10:37.083Z,144.57
2023-01-20T06:13:06.540Z,149.50
2023-01-20T06:15:35.771Z,162.35
2023-01-20T06:18:05.283Z,130.82
2023-01-20T06:20:34.655Z,152.95
2023-01-20T06:23:03.955Z,147.65
2023-01-20T06:25:33.715Z,143.15
2023-01-20T06:28:03.713Z,134.45
2023-01-20T06:30:33.058Z,146.80
2023-01-20T06:33:02.627Z,134.57
2023-01-20T06:35:34.709Z,146.93
2023-01-20T06:40:34.270Z,127.20
2023-01-20T06:43:04.153Z,139.07
2023-01-20T06:45:33.485Z,138.32
2023-01-20T06:48:02.971Z,129.38
2023-01-20T06:50:35.506Z,153.65
2023-01-20T06:53:04.875Z,149.10
2023-01-20T06:55:34.411Z,160.10
2023-01-20T06:58:03.515Z,153.18
2023-01-20T07:00:32.741Z,142.85
2023-01-20T07:03:02.028Z,136.55
2023-01-20T07:05:31.068Z,188.95
2023-01-20T07:08:00.467Z,137.98
2023-01-20T07:10:29.616Z,146.13
2023-01-20T07:12:59.068Z,143.98
2023-01-20T07:15:28.338Z,135.48
2023-01-20T07:17:58.034Z,121.38
2023-01-20T07:20:27.355Z,105.88
2023-01-20T07:22:56.589Z,100.55
2023-01-20T07:25:26.431Z,81.32
2023-01-20T07:27:56.326Z,94.13
2023-01-20T07:30:26.687Z,86.88
2023-01-20T07:32:56.160Z,75.88
2023-01-20T07:35:25.540Z,89.05
2023-01-20T07:37:55.008Z,83.70
2023-01-20T07:40:24.489Z,93.95
2023-01-20T07:42:53.148Z,89.30
2023-01-20T07:45:22.562Z,82.15
2023-01-20T07:47:51.959Z,75.30
2023-01-20T07:50:21.332Z,85.85
2023-01-20T07:52:50.815Z,89.95
2023-01-20T07:55:20.603Z,83.35
2023-01-20T07:57:50.015Z,94.88
2023-01-20T08:00:22.503Z,91.25
2023-01-20T08:05:21.604Z,81.35
2023-01-20T08:07:55.126Z,84.78
2023-01-20T08:10:24.643Z,105.65
2023-01-20T08:12:54.352Z,86.82
2023-01-20T08:15:24.104Z,90.93
2023-01-20T08:17:58.573Z,66.30
2023-01-20T08:20:28.575Z,74.40
2023-01-20T08:22:58.241Z,78.93
2023-01-20T08:25:28.451Z,74.05
2023-01-20T08:27:58.135Z,67.20
2023-01-20T08:30:27.666Z,55.42
2023-01-20T08:32:57.708Z,56.92
2023-01-20T08:35:27.672Z,55.25
2023-01-20T08:37:57.249Z,62.78
2023-01-20T08:40:26.898Z,56.45
2023-01-20T08:42:56.544Z,43.67
2023-01-20T08:45:26.399Z,51.28
2023-01-20T08:47:56.365Z,44.85
2023-01-20T08:50:26.275Z,40.78
2023-01-20T08:52:55.975Z,38.67
2023-01-20T08:55:25.658Z,41.58
2023-01-20T08:57:55.199Z,44.83
2023-01-20T09:00:25.106Z,33.30
2023-01-20T09:02:55.193Z,66.88
2023-01-20T09:05:25.154Z,45.47
2023-01-20T09:07:54.786Z,43.35
2023-01-20T09:10:24.701Z,30.40
2023-01-20T09:12:54.019Z,35.13
2023-01-20T09:15:25.641Z,26.55
2023-01-20T09:17:55.934Z,29.38
2023-01-20T09:20:25.939Z,28.17
2023-01-20T09:22:55.573Z,31.23
2023-01-20T09:25:24.987Z,35.38
2023-01-20T09:27:54.683Z,27.00
2023-01-20T09:30:24.248Z,29.40
2023-01-20T09:32:56.652Z,28.50
2023-01-20T09:35:26.550Z,27.63
2023-01-20T09:38:14.725Z,32.33
2023-01-20T09:41:25.498Z,31.80
2023-01-20T09:44:02.986Z,44.38
2023-01-20T09:46:45.341Z,39.45
2023-01-20T09:49:56.297Z,47.95
2023-01-20T09:52:53.616Z,51.53
2023-01-20T09:55:45.497Z,49.78
2023-01-20T09:58:31.529Z,60.28
2023-01-20T10:01:32.051Z,55.75
2023-01-20T10:04:33.849Z,52.90
2023-01-20T10:07:15.452Z,57.30
2023-01-20T10:10:00.768Z,56.38
2023-01-20T10:15:13.748Z,62.67
2023-01-20T10:18:01.776Z,55.17
2023-01-20T10:20:58.724Z,67.90
2023-01-20T10:23:53.544Z,98.68
2023-01-20T10:26:40.881Z,56.08
2023-01-20T10:29:19.468Z,54.53
2023-01-20T10:32:25.458Z,57.95
2023-01-20T10:34:59.513Z,44.10
2023-01-20T10:37:31.664Z,43.97
2023-01-20T10:40:35.315Z,52.78
2023-01-20T10:43:16.865Z,64.22
2023-01-20T10:45:56.259Z,49.42
2023-01-20T10:48:33.467Z,62.47
2023-01-20T10:51:02.947Z,64.07
2023-01-20T10:53:51.854Z,78.88
2023-01-20T10:56:36.414Z,82.55
2023-01-20T10:59:17.291Z,84.72
2023-01-20T11:02:02.526Z,109.90
2023-01-20T11:04:40.874Z,90.78
2023-01-20T11:07:19.695Z,89.90
2023-01-20T11:09:50.381Z,92.32
2023-01-20T11:12:27.509Z,88.97
2023-01-20T11:15:01.242Z,83.80
2023-01-20T11:17:30.954Z,71.68
2023-01-20T11:20:08.191Z,80.07
2023-01-20T11:22:39.601Z,80.80
2023-01-20T11:25:26.888Z,81.43
2023-01-20T11:27:56.574Z,87.22
2023-01-20T11:30:35.740Z,84.32
2023-01-20T11:33:18.066Z,92.20
2023-01-20T11:36:06.437Z,95.55
2023-01-20T11:38:50.419Z,90.18
2023-01-20T11:41:31.420Z,98.05
2023-01-20T11:44:02.608Z,91.88
2023-01-20T11:46:39.565Z,104.55
2023-01-20T11:49:23.359Z,96.38
2023-01-20T11:51:59.678Z,95.93
2023-01-20T11:54:31.758Z,96.00
2023-01-20T11:57:08.743Z,101.45
2023-01-20T11:59:47.820Z,104.75
2023-01-20T12:02:17.399Z,99.80
2023-01-20T12:04:54.220Z,105.43
2023-01-20T12:07:47.871Z,99.13
2023-01-20T12:10:29.725Z,90.55
2023-01-20T12:13:19.003Z,89.65
2023-01-20T12:15:55.992Z,93.65
2023-01-20T12:18:31.796Z,106.50
2023-01-20T12:21:10.474Z,101.90
2023-01-20T12:23:46.738Z,107.10
2023-01-20T12:26:19.514Z,105.65
2023-01-20T12:29:09.134Z,93.07
2023-01-20T12:31:39.035Z,110.50
2023-01-20T12:34:22.516Z,96.05
2023-01-20T12:37:12.979Z,104.40
2023-01-20T12:39:48.485Z,94.55
2023-01-20T12:42:36.297Z,97.43
2023-01-20T12:45:12.392Z,82.10
2023-01-20T12:48:18.879Z,84.88
2023-01-20T12:51:09.305Z,88.90
2023-01-20T12:53:44.786Z,82.50
2023-01-20T12:56:47.767Z,87.50
2023-01-20T12:59:45.312Z,78.47
2023-01-20T13:02:17.891Z,82.97
2023-01-20T13:07:16.828Z,91.10
2023-01-20T13:09:58.529Z,84.50
2023-01-20T13:12:52.525Z,77.82
2023-01-20T13:15:38.137Z,86.38
2023-01-20T13:18:26.403Z,80.20
2023-01-20T13:20:57.184Z,82.90
2023-01-20T13:23:34.948Z,79.05
2023-01-20T13:26:06.780Z,87.53
2023-01-20T13:28:36.597Z,84.57
2023-01-20T13:31:38.211Z,86.70
2023-01-20T13:34:23.512Z,81.32
2023-01-20T13:37:05.308Z,83.90
2023-01-20T13:39:47.167Z,83.85
2023-01-20T13:42:38.053Z,77.57
2023-01-20T13:45:13.934Z,77.35
2023-01-20T13:48:08.384Z,83.65
2023-01-20T13:50:40.261Z,79.38
2023-01-20T13:53:12.790Z,75.90
2023-01-20T13:55:50.555Z,87.00
2023-01-20T13:58:27.222Z,82.88
2023-01-20T14:01:00.900Z,82.88
2023-01-20T14:03:31.704Z,79.65
2023-01-20T14:06:19.670Z,77.90
2023-01-20T14:08:51.800Z,85.68
2023-01-20T14:11:24.371Z,84.18
2023-01-20T14:16:30.677Z,85.00
2023-01-20T14:19:36.379Z,79.78
2023-01-20T14:22:24.980Z,74.00
2023-01-20T14:25:01.226Z,75.38
2023-01-20T14:27:34.534Z,83.93
2023-01-20T14:30:26.249Z,77.80
2023-01-20T14:32:56.098Z,117.80
2023-01-20T14:35:35.240Z,104.63
2023-01-20T14:38:05.147Z,83.43
2023-01-20T14:40:37.457Z,73.28
2023-01-20T14:43:21.449Z,79.78
2023-01-20T14:45:55.975Z,86.47
2023-01-20T14:48:34.532Z,88.60
2023-01-20T14:51:07.054Z,84.18
2023-01-20T14:53:37.428Z,74.35
2023-01-20T14:56:20.311Z,88.07
2023-01-20T15:01:25.891Z,75.47
2023-01-20T15:04:04.226Z,86.18
2023-01-20T15:06:34.000Z,81.82
2023-01-20T15:09:06.927Z,76.85
2023-01-20T15:11:37.894Z,83.13
2023-01-20T15:14:11.848Z,82.13
2023-01-20T15:16:48.648Z,81.80
2023-01-20T15:19:18.582Z,79.60
2023-01-20T15:21:51.282Z,76.10
2023-01-20T15:26:53.808Z,74.22
2023-01-20T15:29:28.241Z,89.65
2023-01-20T15:32:00.315Z,83.28
2023-01-20T15:34:30.901Z,92.85
2023-01-20T15:37:00.747Z,90.72
2023-01-20T15:39:31.326Z,100.57
2023-01-20T15:42:02.665Z,98.68
2023-01-20T15:44:32.414Z,112.18
2023-01-20T15:47:02.417Z,124.65
2023-01-20T15:49:31.896Z,129.35
2023-01-20T15:52:01.518Z,128.48
2023-01-20T15:54:31.083Z,121.30
2023-01-20T15:57:01.671Z,116.28
2023-01-20T15:59:33.626Z,109.68
2023-01-20T16:02:03.651Z,107.05
2023-01-20T16:04:33.514Z,88.85
2023-01-20T16:07:03.145Z,102.25
2023-01-20T16:09:38.386Z,99.80
2023-01-20T16:12:08.101Z,83.95
2023-01-20T16:14:40.549Z,90.30
2023-01-20T16:19:47.875Z,80.10
2023-01-20T16:22:18.504Z,87.57
2023-01-20T16:24:50.426Z,86.45
2023-01-20T16:27:24.923Z,90.55
2023-01-20T16:29:57.271Z,89.95
2023-01-20T16:32:28.253Z,78.18
2023-01-20T16:34:58.853Z,78.40
2023-01-20T16:37:29.621Z,84.85
2023-01-20T16:40:00.748Z,80.00
2023-01-20T16:42:32.761Z,71.38
2023-01-20T16:45:06.989Z,95.60
2023-01-20T16:47:37.525Z,86.22
2023-01-20T16:50:08.597Z,74.95
2023-01-20T16:52:38.868Z,72.18
2023-01-20T16:55:11.603Z,78.43
2023-01-20T16:57:45.172Z,85.07
2023-01-20T17:00:18.694Z,84.75
2023-01-20T17:02:55.641Z,82.05
2023-01-20T17:05:29.274Z,95.60
2023-01-20T17:08:01.591Z,104.75
2023-01-20T17:10:36.719Z,116.18
2023-01-20T17:13:14.591Z,120.75
2023-01-20T17:15:45.192Z,127.55
2023-01-20T17:18:15.577Z,151.18
2023-01-20T17:20:46.052Z,160.35
2023-01-20T17:23:19.966Z,155.10
2023-01-20T17:25:50.583Z,149.73
2023-01-20T17:28:20.953Z,103.68
2023-01-20T17:30:51.592Z,100.10
2023-01-20T17:33:22.089Z,109.22
2023-01-20T17:36:05.456Z,92.50
2023-01-20T17:38:37.526Z,91.75
2023-01-20T17:41:16.786Z,95.35
2023-01-20T17:43:50.922Z,105.10
2023-01-20T17:46:23.759Z,104.78
2023-01-20T17:48:54.365Z,117.53
2023-01-20T17:51:27.202Z,129.85
2023-01-20T17:54:03.415Z,119.30
2023-01-20T17:56:34.495Z,131.65
2023-01-20T17:59:09.120Z,160.23
2023-01-20T18:01:45.542Z,174.93
2023-01-20T18:04:16.196Z,173.53
2023-01-20T18:06:52.171Z,170.02
2023-01-20T18:09:22.841Z,157.70
2023-01-20T18:11:53.447Z,166.82
2023-01-20T18:14:23.823Z,162.90
2023-01-20T18:16:55.704Z,163.07
2023-01-20T18:19:25.994Z,162.27
2023-01-20T18:21:56.313Z,187.93
2023-01-20T18:24:26.531Z,194.25
2023-01-20T18:26:57.937Z,183.25
2023-01-20T18:29:31.091Z,172.53
2023-01-20T18:32:01.186Z,153.38
2023-01-20T18:34:31.063Z,116.40
2023-01-20T18:37:00.813Z,117.68
2023-01-20T18:39:31.259Z,121.63
2023-01-20T18:42:01.451Z,121.70
2023-01-20T18:44:31.607Z,126.25
2023-01-20T18:47:01.481Z,125.10
2023-01-20T18:52:51.243Z,159.18
2023-01-20T18:55:20.935Z,183.98
2023-01-20T18:57:50.449Z,201.57
2023-01-20T19:00:20.516Z,242.77
2023-01-20T19:02:53.739Z,304.45
2023-01-20T19:05:23.409Z,364.48
2023-01-20T19:07:53.488Z,400.67
2023-01-20T19:10:23.080Z,414.55
2023-01-20T19:12:53.885Z,418.92
2023-01-20T19:15:23.353Z,423.90
2023-01-20T19:17:56.110Z,427.58
2023-01-20T19:20:25.896Z,398.55
2023-01-20T19:22:55.394Z,437.52
2023-01-20T19:25:30.714Z,441.08
2023-01-20T19:28:00.360Z,463.92
2023-01-20T19:30:30.367Z,460.23
2023-01-20T19:32:59.749Z,435.90
2023-01-20T19:35:31.402Z,439.90
2023-01-20T19:38:01.102Z,420.67
2023-01-20T19:40:30.617Z,403.48
2023-01-20T19:43:02.169Z,375.63
2023-01-20T19:45:44.879Z,346.02
2023-01-20T19:48:15.468Z,340.13
2023-01-20T19:50:45.345Z,337.80
2023-01-20T19:53:14.940Z,349.13
2023-01-20T19:55:44.596Z,328.48
2023-01-20T19:58:14.076Z,319.60
2023-01-20T20:00:43.520Z,278.58
2023-01-20T20:03:13.170Z,253.25
2023-01-20T20:05:42.628Z,225.60
2023-01-20T20:08:12.319Z,263.80
2023-01-20T20:10:45.141Z,220.32
2023-01-20T20:13:14.671Z,213.02
2023-01-20T20:15:44.185Z,224.45
2023-01-20T20:18:13.840Z,245.23
2023-01-20T20:20:46.220Z,233.95
2023-01-20T20:23:15.782Z,229.30
2023-01-20T20:25:51.167Z,230.98
2023-01-20T20:28:20.782Z,270.15
2023-01-20T20:30:50.245Z,250.43
2023-01-20T20:33:20.411Z,229.25
2023-01-20T20:35:50.488Z,196.15
2023-01-20T20:38:20.410Z,213.38
2023-01-20T20:40:50.093Z,158.90
2023-01-20T20:43:24.061Z,174.07
2023-01-20T20:46:00.566Z,170.45
2023-01-20T20:48:30.983Z,170.65
2023-01-20T20:51:07.236Z,146.77
2023-01-20T20:53:37.118Z,161.10
2023-01-20T20:56:11.884Z,124.30
2023-01-20T20:58:55.532Z,113.57
2023-01-20T21:01:29.917Z,107.88
2023-01-20T21:04:01.575Z,116.88
2023-01-20T21:06:32.018Z,133.63
2023-01-20T21:09:02.046Z,133.43
2023-01-20T21:11:31.594Z,138.13
2023-01-20T21:14:01.131Z,135.05
2023-01-20T21:16:31.038Z,140.18
2023-01-20T21:19:02.383Z,126.03
2023-01-20T21:21:32.066Z,145.88
2023-01-20T21:24:01.394Z,172.93
2023-01-20T21:26:31.140Z,155.93
2023-01-20T21:29:04.949Z,113.32
2023-01-20T21:31:35.671Z,105.72
2023-01-20T21:34:05.510Z,101.35
2023-01-20T21:36:35.748Z,99.75
2023-01-20T21:39:06.451Z,123.00
2023-01-20T21:41:36.237Z,124.35
2023-01-20T21:44:23.886Z,110.93
2023-01-20T21:46:53.586Z,148.25
2023-01-20T21:49:41.303Z,191.70
2023-01-20T21:52:34.602Z,194.30
2023-01-20T21:55:05.476Z,194.52
2023-01-20T21:57:35.291Z,206.02
2023-01-20T22:00:08.161Z,185.57
2023-01-20T22:02:48.130Z,177.70
2023-01-20T22:05:17.827Z,140.27
2023-01-20T22:07:49.153Z,147.05
2023-01-20T22:10:18.984Z,159.13
2023-01-20T22:12:48.813Z,145.60
2023-01-20T22:15:18.499Z,129.75
2023-01-20T22:17:48.759Z,134.77
2023-01-20T22:20:19.028Z,143.18
2023-01-20T22:22:48.687Z,133.10
2023-01-20T22:25:18.200Z,156.80
2023-01-20T22:27:50.286Z,148.65
2023-01-20T22:30:20.372Z,142.57
2023-01-20T22:32:50.143Z,167.85
2023-01-20T22:35:19.707Z,185.35
2023-01-20T22:37:49.154Z,204.43
2023-01-20T22:40:18.880Z,212.95
2023-01-20T22:42:48.626Z,215.23
2023-01-20T22:45:18.131Z,222.35
2023-01-20T22:47:47.618Z,228.15
2023-01-20T22:50:17.686Z,213.90
2023-01-20T22:52:47.669Z,214.50
2023-01-20T22:55:17.517Z,175.32
2023-01-20T22:57:47.282Z,198.93
2023-01-20T23:00:18.768Z,188.63
2023-01-20T23:02:48.790Z,210.88
2023-01-20T23:05:18.476Z,182.48
2023-01-20T23:07:48.140Z,176.30
2023-01-20T23:10:37.696Z,175.80
2023-01-20T23:13:07.506Z,144.43
2023-01-20T23:15:36.839Z,169.05
2023-01-20T23:18:06.957Z,136.23
2023-01-20T23:20:36.820Z,125.07
2023-01-20T23:23:06.910Z,135.15
2023-01-20T23:25:36.901Z,119.68
2023-01-20T23:28:06.708Z,122.70
2023-01-20T23:30:36.326Z,117.07
2023-01-20T23:33:06.553Z,140.60
2023-01-20T23:35:39.936Z,129.95
2023-01-20T23:38:10.752Z,119.03
2023-01-20T23:40:40.255Z,103.07
2023-01-20T23:43:10.171Z,104.40
2023-01-20T23:45:39.769Z,109.00
2023-01-20T23:48:09.335Z,84.30
2023-01-20T23:50:39.275Z,123.57
2023-01-20T23:53:08.637Z,132.52
2023-01-20T23:55:38.969Z,138.95
2023-01-20T23:58:08.571Z,184.15
